sensor_id;sensor_type;location;lat;lon;timestamp;pressure;altitude;pressure_sealevel;temperature;humidity
27210;BME280;14721;42.668;23.386;2024-02-28T00:02:14;95616.31;;;10.03;78.85
27210;BME280;14721;42.668;23.386;2024-02-28T00:04:40;95625.25;;;9.90;80.17
27210;BME280;14721;42.668;23.386;2024-02-28T00:07:06;95619.75;;;10.05;79.71
27210;BME280;14721;42.668;23.386;2024-02-28T00:09:32;95615.13;;;9.95;79.34
27210;BME280;14721;42.668;23.386;2024-02-28T00:12:00;95598.13;;;9.83;79.45
27210;BME280;14721;42.668;23.386;2024-02-28T00:14:27;95620.38;;;9.96;79.29
27210;BME280;14721;42.668;23.386;2024-02-28T00:16:52;95631.94;;;10.09;79.43
27210;BME280;14721;42.668;23.386;2024-02-28T00:19:18;95606.34;;;9.93;79.10
27210;BME280;14721;42.668;23.386;2024-02-28T00:21:45;95614.81;;;9.99;79.28
27210;BME280;14721;42.668;23.386;2024-02-28T00:24:11;95601.00;;;9.93;79.52
27210;BME280;14721;42.668;23.386;2024-02-28T00:26:41;95617.03;;;9.93;79.13
27210;BME280;14721;42.668;23.386;2024-02-28T00:29:07;95636.06;;;10.01;79.86
27210;BME280;14721;42.668;23.386;2024-02-28T00:31:32;95615.13;;;9.95;79.48
27210;BME280;14721;42.668;23.386;2024-02-28T00:33:58;95630.63;;;10.02;79.83
27210;BME280;14721;42.668;23.386;2024-02-28T00:36:24;95585.81;;;9.81;80.02
27210;BME280;14721;42.668;23.386;2024-02-28T00:38:50;95627.75;;;10.05;80.26
27210;BME280;14721;42.668;23.386;2024-02-28T00:41:15;95607.44;;;9.90;80.16
27210;BME280;14721;42.668;23.386;2024-02-28T00:43:41;95615.78;;;9.98;80.43
27210;BME280;14721;42.668;23.386;2024-02-28T00:46:08;95615.69;;;10.00;80.85
27210;BME280;14721;42.668;23.386;2024-02-28T00:48:39;95597.94;;;9.86;80.43
27210;BME280;14721;42.668;23.386;2024-02-28T00:51:04;95613.53;;;9.92;80.67
27210;BME280;14721;42.668;23.386;2024-02-28T00:53:30;95611.78;;;9.91;80.58
27210;BME280;14721;42.668;23.386;2024-02-28T00:55:56;95598.75;;;9.74;80.89
27210;BME280;14721;42.668;23.386;2024-02-28T00:58:22;95627.59;;;9.94;80.70
27210;BME280;14721;42.668;23.386;2024-02-28T01:00:50;95561.44;;;9.60;81.21
27210;BME280;14721;42.668;23.386;2024-02-28T01:03:16;95625.56;;;9.85;81.49
27210;BME280;14721;42.668;23.386;2024-02-28T01:05:43;95635.09;;;9.89;81.34
27210;BME280;14721;42.668;23.386;2024-02-28T01:08:09;95642.88;;;9.92;81.34
27210;BME280;14721;42.668;23.386;2024-02-28T01:10:35;95640.53;;;9.88;81.50
27210;BME280;14721;42.668;23.386;2024-02-28T01:13:02;95636.03;;;9.88;81.41
27210;BME280;14721;42.668;23.386;2024-02-28T01:15:28;95641.25;;;9.90;81.45
27210;BME280;14721;42.668;23.386;2024-02-28T01:17:53;95635.78;;;9.79;81.78
27210;BME280;14721;42.668;23.386;2024-02-28T01:20:18;95646.50;;;9.65;81.66
27210;BME280;14721;42.668;23.386;2024-02-28T01:22:44;95646.69;;;9.35;82.40
27210;BME280;14721;42.668;23.386;2024-02-28T01:25:11;95645.53;;;9.39;82.46
27210;BME280;14721;42.668;23.386;2024-02-28T01:27:37;95624.41;;;9.22;82.74
27210;BME280;14721;42.668;23.386;2024-02-28T01:30:06;95630.81;;;9.19;83.20
27210;BME280;14721;42.668;23.386;2024-02-28T01:32:31;95649.66;;;9.30;82.93
27210;BME280;14721;42.668;23.386;2024-02-28T01:34:57;95611.44;;;9.03;83.07
27210;BME280;14721;42.668;23.386;2024-02-28T01:37:24;95618.75;;;9.00;82.87
27210;BME280;14721;42.668;23.386;2024-02-28T01:39:49;95647.88;;;9.17;82.98
27210;BME280;14721;42.668;23.386;2024-02-28T01:42:15;95626.19;;;8.95;83.25
27210;BME280;14721;42.668;23.386;2024-02-28T01:44:45;95659.84;;;9.10;83.40
27210;BME280;14721;42.668;23.386;2024-02-28T01:47:11;95652.81;;;8.95;83.74
27210;BME280;14721;42.668;23.386;2024-02-28T01:49:38;95654.25;;;8.86;83.73
27210;BME280;14721;42.668;23.386;2024-02-28T01:52:04;95662.16;;;8.74;84.23
27210;BME280;14721;42.668;23.386;2024-02-28T01:54:34;95662.34;;;8.71;84.42
27210;BME280;14721;42.668;23.386;2024-02-28T01:57:02;95664.81;;;8.60;85.31
27210;BME280;14721;42.668;23.386;2024-02-28T01:59:29;95599.88;;;8.19;85.10
27210;BME280;14721;42.668;23.386;2024-02-28T02:01:55;95666.22;;;8.51;85.51
27210;BME280;14721;42.668;23.386;2024-02-28T02:04:21;95611.25;;;8.22;85.95
27210;BME280;14721;42.668;23.386;2024-02-28T02:06:47;95621.25;;;8.33;86.56
27210;BME280;14721;42.668;23.386;2024-02-28T02:09:14;95652.91;;;8.51;87.25
27210;BME280;14721;42.668;23.386;2024-02-28T02:11:40;95617.91;;;8.29;87.28
27210;BME280;14721;42.668;23.386;2024-02-28T02:14:10;95652.06;;;8.51;87.54
27210;BME280;14721;42.668;23.386;2024-02-28T02:16:36;95657.88;;;8.43;87.21
27210;BME280;14721;42.668;23.386;2024-02-28T02:19:02;95657.81;;;8.29;87.02
27210;BME280;14721;42.668;23.386;2024-02-28T02:21:34;95656.06;;;8.14;87.92
27210;BME280;14721;42.668;23.386;2024-02-28T02:24:01;95660.59;;;8.12;88.42
27210;BME280;14721;42.668;23.386;2024-02-28T02:26:27;95636.81;;;7.95;88.87
27210;BME280;14721;42.668;23.386;2024-02-28T02:28:52;95652.22;;;8.04;88.99
27210;BME280;14721;42.668;23.386;2024-02-28T02:31:18;95661.81;;;8.07;89.34
27210;BME280;14721;42.668;23.386;2024-02-28T02:33:44;95647.28;;;7.98;89.10
27210;BME280;14721;42.668;23.386;2024-02-28T02:36:13;95660.13;;;8.06;89.21
27210;BME280;14721;42.668;23.386;2024-02-28T02:38:39;95662.69;;;8.07;89.09
27210;BME280;14721;42.668;23.386;2024-02-28T02:41:05;95626.28;;;7.78;89.31
27210;BME280;14721;42.668;23.386;2024-02-28T02:43:30;95673.59;;;8.03;89.64
27210;BME280;14721;42.668;23.386;2024-02-28T02:45:59;95665.03;;;7.98;89.64
27210;BME280;14721;42.668;23.386;2024-02-28T02:48:24;95665.63;;;8.03;90.00
27210;BME280;14721;42.668;23.386;2024-02-28T02:50:53;95604.63;;;7.70;89.84
27210;BME280;14721;42.668;23.386;2024-02-28T02:53:18;95659.72;;;7.98;89.52
27210;BME280;14721;42.668;23.386;2024-02-28T02:55:45;95669.66;;;7.94;89.34
27210;BME280;14721;42.668;23.386;2024-02-28T02:58:11;95662.72;;;7.92;88.93
27210;BME280;14721;42.668;23.386;2024-02-28T03:00:36;95627.09;;;7.64;88.86
27210;BME280;14721;42.668;23.386;2024-02-28T03:03:02;95674.84;;;7.82;89.10
27210;BME280;14721;42.668;23.386;2024-02-28T03:05:28;95632.50;;;7.63;89.80
27210;BME280;14721;42.668;23.386;2024-02-28T03:07:54;95637.72;;;7.64;89.76
27210;BME280;14721;42.668;23.386;2024-02-28T03:10:22;95634.06;;;7.51;90.57
27210;BME280;14721;42.668;23.386;2024-02-28T03:12:48;95637.34;;;7.41;90.92
27210;BME280;14721;42.668;23.386;2024-02-28T03:15:14;95666.25;;;7.62;91.33
27210;BME280;14721;42.668;23.386;2024-02-28T03:17:39;95654.13;;;7.57;91.66
27210;BME280;14721;42.668;23.386;2024-02-28T03:20:05;95637.88;;;7.47;92.20
27210;BME280;14721;42.668;23.386;2024-02-28T03:22:32;95664.69;;;7.58;92.53
27210;BME280;14721;42.668;23.386;2024-02-28T03:24:58;95652.44;;;7.56;93.00
27210;BME280;14721;42.668;23.386;2024-02-28T03:27:24;95670.06;;;7.72;93.14
27210;BME280;14721;42.668;23.386;2024-02-28T03:29:51;95660.56;;;7.68;93.11
27210;BME280;14721;42.668;23.386;2024-02-28T03:32:16;95673.09;;;7.66;93.91
27210;BME280;14721;42.668;23.386;2024-02-28T03:34:43;95682.19;;;7.62;94.44
27210;BME280;14721;42.668;23.386;2024-02-28T03:37:09;95667.25;;;7.60;93.92
27210;BME280;14721;42.668;23.386;2024-02-28T03:39:34;95650.03;;;7.51;93.67
27210;BME280;14721;42.668;23.386;2024-02-28T03:42:00;95665.63;;;7.57;94.04
27210;BME280;14721;42.668;23.386;2024-02-28T03:44:26;95651.16;;;7.47;93.98
27210;BME280;14721;42.668;23.386;2024-02-28T03:46:55;95674.22;;;7.62;93.95
27210;BME280;14721;42.668;23.386;2024-02-28T03:49:26;95684.84;;;7.62;94.18
27210;BME280;14721;42.668;23.386;2024-02-28T03:51:52;95680.97;;;7.68;93.94
27210;BME280;14721;42.668;23.386;2024-02-28T03:54:17;95666.25;;;7.62;94.48
27210;BME280;14721;42.668;23.386;2024-02-28T03:56:43;95684.91;;;7.77;94.36
27210;BME280;14721;42.668;23.386;2024-02-28T03:59:08;95687.38;;;7.80;94.46
27210;BME280;14721;42.668;23.386;2024-02-28T04:01:36;95665.88;;;7.68;93.96
27210;BME280;14721;42.668;23.386;2024-02-28T04:04:01;95679.50;;;7.78;94.14
27210;BME280;14721;42.668;23.386;2024-02-28T04:06:29;95690.41;;;7.73;93.52
27210;BME280;14721;42.668;23.386;2024-02-28T04:08:55;95660.91;;;7.62;93.22
27210;BME280;14721;42.668;23.386;2024-02-28T04:11:20;95654.31;;;7.54;94.06
27210;BME280;14721;42.668;23.386;2024-02-28T04:13:46;95650.81;;;7.53;93.86
27210;BME280;14721;42.668;23.386;2024-02-28T04:16:12;95664.94;;;7.54;94.09
27210;BME280;14721;42.668;23.386;2024-02-28T04:18:38;95677.06;;;7.59;94.18
27210;BME280;14721;42.668;23.386;2024-02-28T04:21:03;95684.34;;;7.56;94.10
27210;BME280;14721;42.668;23.386;2024-02-28T04:23:32;95674.03;;;7.50;94.09
27210;BME280;14721;42.668;23.386;2024-02-28T04:25:57;95679.19;;;7.53;94.24
27210;BME280;14721;42.668;23.386;2024-02-28T04:28:23;95669.69;;;7.49;94.47
27210;BME280;14721;42.668;23.386;2024-02-28T04:30:48;95667.63;;;7.38;95.07
27210;BME280;14721;42.668;23.386;2024-02-28T04:33:15;95672.59;;;7.44;95.41
27210;BME280;14721;42.668;23.386;2024-02-28T04:35:43;95673.72;;;7.25;96.08
27210;BME280;14721;42.668;23.386;2024-02-28T04:38:17;95670.19;;;7.24;96.31
27210;BME280;14721;42.668;23.386;2024-02-28T04:41:00;95613.94;;;6.85;97.06
27210;BME280;14721;42.668;23.386;2024-02-28T04:44:10;95623.28;;;6.92;97.75
27210;BME280;14721;42.668;23.386;2024-02-28T04:47:06;95696.25;;;7.18;97.88
27210;BME280;14721;42.668;23.386;2024-02-28T04:53:05;95659.88;;;6.87;99.89
27210;BME280;14721;42.668;23.386;2024-02-28T04:55:35;95663.13;;;6.92;99.76
27210;BME280;14721;42.668;23.386;2024-02-28T04:58:01;95667.59;;;6.92;100.00
27210;BME280;14721;42.668;23.386;2024-02-28T05:00:27;95688.34;;;7.01;100.00
27210;BME280;14721;42.668;23.386;2024-02-28T05:02:52;95691.69;;;7.04;100.00
27210;BME280;14721;42.668;23.386;2024-02-28T05:05:18;95693.41;;;7.05;100.00
27210;BME280;14721;42.668;23.386;2024-02-28T05:07:43;95667.06;;;6.85;100.00
27210;BME280;14721;42.668;23.386;2024-02-28T05:10:09;95697.16;;;7.01;100.00
27210;BME280;14721;42.668;23.386;2024-02-28T05:12:35;95694.09;;;6.93;100.00
27210;BME280;14721;42.668;23.386;2024-02-28T05:15:00;95656.91;;;6.61;100.00
27210;BME280;14721;42.668;23.386;2024-02-28T05:17:25;95700.22;;;6.94;100.00
27210;BME280;14721;42.668;23.386;2024-02-28T05:19:51;95686.19;;;6.92;100.00
27210;BME280;14721;42.668;23.386;2024-02-28T05:22:16;95712.09;;;7.04;100.00
27210;BME280;14721;42.668;23.386;2024-02-28T05:24:42;95697.41;;;6.97;100.00
27210;BME280;14721;42.668;23.386;2024-02-28T05:27:10;95709.44;;;7.19;100.00
27210;BME280;14721;42.668;23.386;2024-02-28T05:29:36;95707.13;;;7.13;99.82
27210;BME280;14721;42.668;23.386;2024-02-28T05:32:01;95732.44;;;7.36;99.74
27210;BME280;14721;42.668;23.386;2024-02-28T05:34:27;95703.44;;;7.31;99.37
27210;BME280;14721;42.668;23.386;2024-02-28T05:36:52;95727.47;;;7.45;98.46
27210;BME280;14721;42.668;23.386;2024-02-28T05:39:18;95716.47;;;7.36;97.65
27210;BME280;14721;42.668;23.386;2024-02-28T05:41:43;95727.50;;;7.61;97.36
27210;BME280;14721;42.668;23.386;2024-02-28T05:44:09;95730.47;;;7.70;97.39
27210;BME280;14721;42.668;23.386;2024-02-28T05:46:34;95747.78;;;7.93;96.79
27210;BME280;14721;42.668;23.386;2024-02-28T05:49:02;95729.56;;;8.01;96.23
27210;BME280;14721;42.668;23.386;2024-02-28T05:51:27;95735.63;;;8.19;95.13
27210;BME280;14721;42.668;23.386;2024-02-28T05:53:52;95749.31;;;8.42;94.47
27210;BME280;14721;42.668;23.386;2024-02-28T05:56:18;95755.16;;;8.49;94.19
27210;BME280;14721;42.668;23.386;2024-02-28T05:58:46;95770.63;;;8.72;93.94
27210;BME280;14721;42.668;23.386;2024-02-28T06:01:12;95752.34;;;8.80;93.47
27210;BME280;14721;42.668;23.386;2024-02-28T06:03:38;95767.09;;;9.29;92.49
27210;BME280;14721;42.668;23.386;2024-02-28T06:06:04;95768.38;;;9.78;90.57
27210;BME280;14721;42.668;23.386;2024-02-28T06:08:35;95763.31;;;10.41;89.68
27210;BME280;14721;42.668;23.386;2024-02-28T06:11:01;95733.50;;;10.86;85.99
27210;BME280;14721;42.668;23.386;2024-02-28T06:13:27;95770.00;;;11.62;81.26
27210;BME280;14721;42.668;23.386;2024-02-28T06:15:53;95752.34;;;12.08;77.97
27210;BME280;14721;42.668;23.386;2024-02-28T06:18:19;95771.78;;;12.70;74.69
27210;BME280;14721;42.668;23.386;2024-02-28T06:20:44;95766.78;;;13.00;72.27
27210;BME280;14721;42.668;23.386;2024-02-28T06:23:10;95777.34;;;13.25;70.85
27210;BME280;14721;42.668;23.386;2024-02-28T06:25:35;95783.97;;;13.65;68.80
27210;BME280;14721;42.668;23.386;2024-02-28T06:28:01;95735.50;;;13.56;66.95
27210;BME280;14721;42.668;23.386;2024-02-28T06:30:28;95761.75;;;13.96;66.51
27210;BME280;14721;42.668;23.386;2024-02-28T06:32:53;95724.88;;;13.87;65.15
27210;BME280;14721;42.668;23.386;2024-02-28T06:35:19;95778.63;;;14.74;64.27
27210;BME280;14721;42.668;23.386;2024-02-28T06:37:44;95760.94;;;15.13;61.50
27210;BME280;14721;42.668;23.386;2024-02-28T06:40:15;95778.22;;;15.72;59.95
27210;BME280;14721;42.668;23.386;2024-02-28T06:42:41;95778.22;;;16.02;58.51
27210;BME280;14721;42.668;23.386;2024-02-28T06:45:07;95777.06;;;16.34;57.20
27210;BME280;14721;42.668;23.386;2024-02-28T06:47:33;95772.38;;;16.76;55.82
27210;BME280;14721;42.668;23.386;2024-02-28T06:50:02;95773.59;;;16.53;55.63
27210;BME280;14721;42.668;23.386;2024-02-28T06:52:28;95702.03;;;16.49;54.62
27210;BME280;14721;42.668;23.386;2024-02-28T06:54:53;95786.28;;;16.90;54.54
27210;BME280;14721;42.668;23.386;2024-02-28T06:57:19;95756.84;;;16.49;55.03
27210;BME280;14721;42.668;23.386;2024-02-28T06:59:45;95773.63;;;16.62;54.87
27210;BME280;14721;42.668;23.386;2024-02-28T07:02:10;95779.31;;;16.78;54.35
27210;BME280;14721;42.668;23.386;2024-02-28T07:04:38;95773.63;;;16.81;54.42
27210;BME280;14721;42.668;23.386;2024-02-28T07:07:03;95754.88;;;16.80;54.11
27210;BME280;14721;42.668;23.386;2024-02-28T07:09:30;95765.28;;;17.04;53.93
27210;BME280;14721;42.668;23.386;2024-02-28T07:11:58;95770.97;;;17.29;53.38
27210;BME280;14721;42.668;23.386;2024-02-28T07:14:23;95769.81;;;17.60;51.84
27210;BME280;14721;42.668;23.386;2024-02-28T07:16:49;95776.09;;;17.97;51.37
27210;BME280;14721;42.668;23.386;2024-02-28T07:19:17;95766.84;;;18.00;50.82
27210;BME280;14721;42.668;23.386;2024-02-28T07:21:43;95784.88;;;18.09;51.13
27210;BME280;14721;42.668;23.386;2024-02-28T07:24:08;95774.91;;;18.19;50.25
27210;BME280;14721;42.668;23.386;2024-02-28T07:26:34;95773.06;;;18.46;49.85
27210;BME280;14721;42.668;23.386;2024-02-28T07:28:59;95770.59;;;18.26;49.76
27210;BME280;14721;42.668;23.386;2024-02-28T07:31:25;95749.22;;;17.31;51.08
27210;BME280;14721;42.668;23.386;2024-02-28T07:33:53;95773.09;;;17.16;52.40
27210;BME280;14721;42.668;23.386;2024-02-28T07:36:19;95769.66;;;17.52;52.16
27210;BME280;14721;42.668;23.386;2024-02-28T07:38:45;95781.38;;;17.99;51.12
27210;BME280;14721;42.668;23.386;2024-02-28T07:41:10;95758.41;;;18.49;49.92
27210;BME280;14721;42.668;23.386;2024-02-28T07:43:36;95784.00;;;18.54;49.44
27210;BME280;14721;42.668;23.386;2024-02-28T07:46:08;95771.19;;;18.74;49.48
27210;BME280;14721;42.668;23.386;2024-02-28T07:48:34;95753.59;;;18.88;48.55
27210;BME280;14721;42.668;23.386;2024-02-28T07:51:00;95764.97;;;19.09;48.10
27210;BME280;14721;42.668;23.386;2024-02-28T07:53:26;95762.81;;;19.12;47.99
27210;BME280;14721;42.668;23.386;2024-02-28T07:55:52;95775.88;;;19.52;47.62
27210;BME280;14721;42.668;23.386;2024-02-28T07:58:17;95758.16;;;19.57;47.73
27210;BME280;14721;42.668;23.386;2024-02-28T08:00:43;95730.28;;;19.98;45.93
27210;BME280;14721;42.668;23.386;2024-02-28T08:03:09;95765.78;;;20.30;44.86
27210;BME280;14721;42.668;23.386;2024-02-28T08:05:35;95728.34;;;19.83;45.73
27210;BME280;14721;42.668;23.386;2024-02-28T08:08:07;95771.13;;;19.97;45.39
27210;BME280;14721;42.668;23.386;2024-02-28T08:10:32;95757.25;;;19.74;45.48
27210;BME280;14721;42.668;23.386;2024-02-28T08:12:58;95764.38;;;19.50;46.04
27210;BME280;14721;42.668;23.386;2024-02-28T08:15:24;95752.69;;;19.32;46.85
27210;BME280;14721;42.668;23.386;2024-02-28T08:17:49;95752.97;;;19.11;47.23
27210;BME280;14721;42.668;23.386;2024-02-28T08:20:15;95748.16;;;19.58;46.29
27210;BME280;14721;42.668;23.386;2024-02-28T08:22:40;95757.22;;;19.92;45.46
27210;BME280;14721;42.668;23.386;2024-02-28T08:25:06;95752.00;;;19.98;45.64
27210;BME280;14721;42.668;23.386;2024-02-28T08:27:32;95760.34;;;19.79;45.69
27210;BME280;14721;42.668;23.386;2024-02-28T08:30:00;95760.91;;;19.65;45.65
27210;BME280;14721;42.668;23.386;2024-02-28T08:32:25;95757.16;;;19.84;45.29
27210;BME280;14721;42.668;23.386;2024-02-28T08:34:51;95718.22;;;19.07;46.26
27210;BME280;14721;42.668;23.386;2024-02-28T08:37:18;95749.81;;;18.26;48.60
27210;BME280;14721;42.668;23.386;2024-02-28T08:39:44;95755.34;;;17.98;49.57
27210;BME280;14721;42.668;23.386;2024-02-28T08:42:09;95713.91;;;17.97;49.54
27210;BME280;14721;42.668;23.386;2024-02-28T08:44:35;95756.00;;;18.09;49.67
27210;BME280;14721;42.668;23.386;2024-02-28T08:47:00;95749.97;;;18.15;49.38
27210;BME280;14721;42.668;23.386;2024-02-28T08:49:26;95733.22;;;17.75;50.18
27210;BME280;14721;42.668;23.386;2024-02-28T08:51:51;95749.81;;;17.90;49.94
27210;BME280;14721;42.668;23.386;2024-02-28T08:54:17;95720.50;;;17.49;50.63
27210;BME280;14721;42.668;23.386;2024-02-28T08:56:44;95749.22;;;17.50;51.21
27210;BME280;14721;42.668;23.386;2024-02-28T08:59:09;95737.13;;;17.25;52.11
27210;BME280;14721;42.668;23.386;2024-02-28T09:01:35;95722.09;;;17.04;52.72
27210;BME280;14721;42.668;23.386;2024-02-28T09:04:02;95716.53;;;16.96;52.62
27210;BME280;14721;42.668;23.386;2024-02-28T09:06:27;95743.38;;;16.68;52.53
27210;BME280;14721;42.668;23.386;2024-02-28T09:08:53;95741.53;;;16.20;53.33
27210;BME280;14721;42.668;23.386;2024-02-28T09:11:18;95751.06;;;15.84;54.59
27210;BME280;14721;42.668;23.386;2024-02-28T09:13:44;95729.16;;;15.68;54.95
27210;BME280;14721;42.668;23.386;2024-02-28T09:16:09;95732.13;;;15.65;55.41
27210;BME280;14721;42.668;23.386;2024-02-28T09:18:35;95731.19;;;15.55;55.95
27210;BME280;14721;42.668;23.386;2024-02-28T09:21:00;95749.09;;;15.66;56.04
27210;BME280;14721;42.668;23.386;2024-02-28T09:23:26;95726.81;;;15.34;56.83
27210;BME280;14721;42.668;23.386;2024-02-28T09:25:51;95746.06;;;15.80;56.52
27210;BME280;14721;42.668;23.386;2024-02-28T09:28:17;95736.03;;;15.82;56.06
27210;BME280;14721;42.668;23.386;2024-02-28T09:30:42;95719.59;;;15.85;55.46
27210;BME280;14721;42.668;23.386;2024-02-28T09:33:09;95729.63;;;16.22;55.12
27210;BME280;14721;42.668;23.386;2024-02-28T09:35:35;95716.88;;;16.34;54.37
27210;BME280;14721;42.668;23.386;2024-02-28T09:38:02;95726.53;;;16.36;54.46
27210;BME280;14721;42.668;23.386;2024-02-28T09:40:27;95727.59;;;16.54;54.13
27210;BME280;14721;42.668;23.386;2024-02-28T09:43:00;95729.72;;;16.60;53.77
27210;BME280;14721;42.668;23.386;2024-02-28T09:45:26;95701.78;;;16.80;53.25
27210;BME280;14721;42.668;23.386;2024-02-28T09:47:52;95693.69;;;16.90;52.49
27210;BME280;14721;42.668;23.386;2024-02-28T09:50:18;95707.19;;;16.80;52.10
27210;BME280;14721;42.668;23.386;2024-02-28T09:52:45;95709.59;;;16.83;52.04
27210;BME280;14721;42.668;23.386;2024-02-28T09:55:10;95705.88;;;16.65;52.07
27210;BME280;14721;42.668;23.386;2024-02-28T09:57:36;95708.00;;;16.62;52.49
27210;BME280;14721;42.668;23.386;2024-02-28T10:00:03;95688.28;;;16.61;52.74
27210;BME280;14721;42.668;23.386;2024-02-28T10:02:30;95700.78;;;16.72;52.17
27210;BME280;14721;42.668;23.386;2024-02-28T10:04:56;95706.53;;;16.39;53.06
27210;BME280;14721;42.668;23.386;2024-02-28T10:07:25;95671.56;;;16.09;53.46
27210;BME280;14721;42.668;23.386;2024-02-28T10:09:51;95700.00;;;16.41;53.32
27210;BME280;14721;42.668;23.386;2024-02-28T10:12:16;95703.22;;;16.75;52.92
27210;BME280;14721;42.668;23.386;2024-02-28T10:14:43;95683.31;;;16.57;52.92
27210;BME280;14721;42.668;23.386;2024-02-28T10:17:09;95696.94;;;16.93;52.50
27210;BME280;14721;42.668;23.386;2024-02-28T10:19:34;95701.91;;;17.17;51.79
27210;BME280;14721;42.668;23.386;2024-02-28T10:22:00;95697.59;;;17.34;51.95
27210;BME280;14721;42.668;23.386;2024-02-28T10:24:26;95694.19;;;17.32;51.88
27210;BME280;14721;42.668;23.386;2024-02-28T10:26:51;95694.03;;;17.52;51.84
27210;BME280;14721;42.668;23.386;2024-02-28T10:29:23;95680.31;;;17.73;50.95
27210;BME280;14721;42.668;23.386;2024-02-28T10:31:50;95683.84;;;17.73;50.82
27210;BME280;14721;42.668;23.386;2024-02-28T10:34:19;95677.31;;;17.76;49.18
27210;BME280;14721;42.668;23.386;2024-02-28T10:36:44;95675.06;;;17.71;49.38
27210;BME280;14721;42.668;23.386;2024-02-28T10:39:11;95659.09;;;17.78;48.85
27210;BME280;14721;42.668;23.386;2024-02-28T10:41:44;95642.94;;;17.68;49.07
27210;BME280;14721;42.668;23.386;2024-02-28T10:44:12;95638.44;;;17.86;48.69
27210;BME280;14721;42.668;23.386;2024-02-28T10:46:38;95645.69;;;18.13;48.74
27210;BME280;14721;42.668;23.386;2024-02-28T10:49:05;95631.91;;;18.06;48.94
27210;BME280;14721;42.668;23.386;2024-02-28T10:51:34;95660.59;;;17.90;50.11
27210;BME280;14721;42.668;23.386;2024-02-28T10:54:12;95644.03;;;18.02;50.29
27210;BME280;14721;42.668;23.386;2024-02-28T10:56:39;95653.13;;;18.01;50.01
27210;BME280;14721;42.668;23.386;2024-02-28T10:59:09;95606.78;;;17.69;50.33
27210;BME280;14721;42.668;23.386;2024-02-28T11:01:39;95644.22;;;17.91;50.19
27210;BME280;14721;42.668;23.386;2024-02-28T11:04:09;95638.13;;;17.62;50.51
27210;BME280;14721;42.668;23.386;2024-02-28T11:06:47;95647.59;;;17.76;50.23
27210;BME280;14721;42.668;23.386;2024-02-28T11:09:19;95638.47;;;17.77;50.57
27210;BME280;14721;42.668;23.386;2024-02-28T11:11:50;95637.13;;;17.90;50.29
27210;BME280;14721;42.668;23.386;2024-02-28T11:14:16;95629.59;;;18.11;49.88
27210;BME280;14721;42.668;23.386;2024-02-28T11:16:42;95613.81;;;17.89;49.61
27210;BME280;14721;42.668;23.386;2024-02-28T11:19:19;95564.09;;;17.36;50.12
27210;BME280;14721;42.668;23.386;2024-02-28T11:21:52;95613.88;;;17.70;50.28
27210;BME280;14721;42.668;23.386;2024-02-28T11:24:23;95607.56;;;17.52;50.67
27210;BME280;14721;42.668;23.386;2024-02-28T11:26:49;95611.25;;;17.61;50.58
27210;BME280;14721;42.668;23.386;2024-02-28T11:29:16;95613.38;;;17.57;50.49
27210;BME280;14721;42.668;23.386;2024-02-28T11:31:41;95618.06;;;17.55;50.67
27210;BME280;14721;42.668;23.386;2024-02-28T11:34:08;95577.25;;;17.22;50.27
27210;BME280;14721;42.668;23.386;2024-02-28T11:36:33;95599.81;;;17.21;50.61
27210;BME280;14721;42.668;23.386;2024-02-28T11:38:59;95608.41;;;17.07;51.26
27210;BME280;14721;42.668;23.386;2024-02-28T11:41:28;95573.03;;;17.00;51.35
27210;BME280;14721;42.668;23.386;2024-02-28T11:43:54;95603.69;;;17.09;51.57
27210;BME280;14721;42.668;23.386;2024-02-28T11:46:19;95585.38;;;17.03;51.10
27210;BME280;14721;42.668;23.386;2024-02-28T11:48:45;95595.94;;;16.96;51.20
27210;BME280;14721;42.668;23.386;2024-02-28T11:51:11;95583.84;;;17.00;51.08
27210;BME280;14721;42.668;23.386;2024-02-28T11:53:36;95564.28;;;16.79;51.83
27210;BME280;14721;42.668;23.386;2024-02-28T11:56:02;95581.31;;;16.89;52.27
27210;BME280;14721;42.668;23.386;2024-02-28T11:58:29;95580.19;;;16.92;52.43
27210;BME280;14721;42.668;23.386;2024-02-28T12:00:54;95581.13;;;17.00;52.13
27210;BME280;14721;42.668;23.386;2024-02-28T12:03:24;95582.22;;;17.26;51.86
27210;BME280;14721;42.668;23.386;2024-02-28T12:05:52;95581.13;;;17.10;51.77
27210;BME280;14721;42.668;23.386;2024-02-28T12:08:19;95577.19;;;17.31;51.85
27210;BME280;14721;42.668;23.386;2024-02-28T12:10:48;95567.00;;;17.62;51.16
27210;BME280;14721;42.668;23.386;2024-02-28T12:13:20;95547.75;;;17.47;50.96
27210;BME280;14721;42.668;23.386;2024-02-28T12:15:45;95549.41;;;17.58;50.15
27210;BME280;14721;42.668;23.386;2024-02-28T12:18:15;95561.31;;;17.82;50.41
27210;BME280;14721;42.668;23.386;2024-02-28T12:20:40;95517.72;;;17.50;49.82
27210;BME280;14721;42.668;23.386;2024-02-28T12:23:06;95555.94;;;18.00;49.86
27210;BME280;14721;42.668;23.386;2024-02-28T12:25:33;95554.41;;;18.15;49.10
27210;BME280;14721;42.668;23.386;2024-02-28T12:28:00;95537.00;;;18.00;49.06
27210;BME280;14721;42.668;23.386;2024-02-28T12:30:26;95542.78;;;17.70;49.24
27210;BME280;14721;42.668;23.386;2024-02-28T12:32:52;95544.31;;;17.72;49.60
27210;BME280;14721;42.668;23.386;2024-02-28T12:35:17;95531.53;;;17.74;49.38
27210;BME280;14721;42.668;23.386;2024-02-28T12:37:42;95540.16;;;17.78;49.35
27210;BME280;14721;42.668;23.386;2024-02-28T12:40:08;95538.31;;;17.78;49.39
27210;BME280;14721;42.668;23.386;2024-02-28T12:42:34;95539.94;;;17.89;48.99
27210;BME280;14721;42.668;23.386;2024-02-28T12:45:00;95543.31;;;17.73;48.56
27210;BME280;14721;42.668;23.386;2024-02-28T12:47:26;95535.06;;;17.48;48.87
27210;BME280;14721;42.668;23.386;2024-02-28T12:49:51;95532.09;;;17.41;48.95
27210;BME280;14721;42.668;23.386;2024-02-28T12:52:17;95532.25;;;17.40;48.73
27210;BME280;14721;42.668;23.386;2024-02-28T12:54:43;95532.50;;;17.46;48.79
27210;BME280;14721;42.668;23.386;2024-02-28T12:57:08;95530.69;;;17.37;48.54